createdAt,value
2022-12-04T00:01:00.652Z,30.58
2022-12-04T00:06:07.157Z,27.97
2022-12-04T00:11:14.366Z,30.98
2022-12-04T00:16:25.175Z,27.50
2022-12-04T00:21:30.513Z,26.27
2022-12-04T00:26:35.952Z,27.50
2022-12-04T00:31:44.053Z,25.93
2022-12-04T00:36:49.383Z,29.98
2022-12-04T00:41:54.715Z,24.33
2022-12-04T00:47:02.606Z,27.13
2022-12-04T00:52:07.839Z,27.75
2022-12-04T00:57:13.053Z,27.10
2022-12-04T01:02:20.942Z,29.30
2022-12-04T01:07:26.281Z,26.67
2022-12-04T01:12:31.526Z,28.65
2022-12-04T01:17:39.592Z,23.73
2022-12-04T01:22:44.881Z,24.50
2022-12-04T01:27:50.130Z,27.35
2022-12-04T01:32:58.994Z,23.40
2022-12-04T01:38:04.525Z,25.88
2022-12-04T01:43:15.146Z,27.42
2022-12-04T01:48:30.947Z,28.63
2022-12-04T01:53:38.229Z,27.23
2022-12-04T01:58:46.838Z,26.33
2022-12-04T02:03:54.730Z,26.08
2022-12-04T02:09:00.045Z,23.27
2022-12-04T02:14:13.934Z,27.77
2022-12-04T02:19:43.653Z,30.48
2022-12-04T02:24:55.513Z,24.53
2022-12-04T02:30:08.147Z,29.73
2022-12-04T02:35:17.631Z,26.95
2022-12-04T02:40:29.483Z,24.83
2022-12-04T02:45:42.222Z,31.15
2022-12-04T02:50:51.118Z,27.30
2022-12-04T02:55:59.723Z,27.08
2022-12-04T03:01:19.697Z,27.77
2022-12-04T03:06:27.543Z,24.63
2022-12-04T03:11:36.451Z,26.25
2022-12-04T03:16:46.028Z,23.50
2022-12-04T03:21:55.117Z,23.00
2022-12-04T03:27:06.689Z,28.08
2022-12-04T03:32:18.481Z,25.57
2022-12-04T03:37:32.338Z,29.33
2022-12-04T03:42:45.279Z,27.23
2022-12-04T03:47:57.370Z,28.30
2022-12-04T03:53:09.642Z,22.60
2022-12-04T03:58:19.680Z,32.43
2022-12-04T04:03:31.158Z,26.83
2022-12-04T04:08:41.665Z,28.77
2022-12-04T04:14:06.136Z,22.58
2022-12-04T04:19:28.802Z,25.77
2022-12-04T04:24:42.542Z,22.10
2022-12-04T04:29:52.616Z,27.15
2022-12-04T04:35:06.437Z,24.20
2022-12-04T04:40:17.143Z,22.70
2022-12-04T04:45:26.090Z,31.52
2022-12-04T04:50:35.958Z,25.63
2022-12-04T04:55:42.006Z,26.15
2022-12-04T05:00:54.216Z,26.70
2022-12-04T05:06:02.370Z,26.63
2022-12-04T05:11:08.464Z,24.98
2022-12-04T05:16:16.614Z,24.93
2022-12-04T05:21:24.546Z,22.50
2022-12-04T05:26:29.787Z,21.90
2022-12-04T05:31:35.160Z,20.48
2022-12-04T05:36:42.996Z,17.88
2022-12-04T05:41:48.215Z,19.20
2022-12-04T05:46:53.608Z,20.30
2022-12-04T05:52:01.562Z,19.17
2022-12-04T05:57:07.043Z,16.92
2022-12-04T06:02:12.418Z,17.90
2022-12-04T06:07:20.403Z,15.37
2022-12-04T06:12:25.827Z,19.92
2022-12-04T06:17:31.045Z,17.73
2022-12-04T06:22:38.906Z,17.10
2022-12-04T06:27:44.443Z,19.17
2022-12-04T06:32:49.654Z,17.63
2022-12-04T06:37:57.505Z,17.77
2022-12-04T06:43:02.758Z,19.30
2022-12-04T06:48:08.262Z,17.30
2022-12-04T06:53:16.193Z,18.20
2022-12-04T06:58:21.464Z,17.23
2022-12-04T07:03:28.369Z,17.23
2022-12-04T07:08:36.222Z,20.30
2022-12-04T07:13:42.265Z,14.45
2022-12-04T07:18:50.402Z,15.98
2022-12-04T07:24:01.814Z,15.50
2022-12-04T07:29:07.247Z,13.73
2022-12-04T07:34:12.719Z,10.47
2022-12-04T07:39:21.810Z,12.05
2022-12-04T07:44:27.367Z,9.75
2022-12-04T07:49:32.914Z,12.67
2022-12-04T07:54:41.850Z,10.50
2022-12-04T07:59:47.087Z,11.90
2022-12-04T08:04:52.403Z,12.30
2022-12-04T08:10:00.304Z,13.13
2022-12-04T08:15:07.997Z,10.90
2022-12-04T08:20:14.191Z,10.52
2022-12-04T08:25:22.110Z,11.67
2022-12-04T08:30:27.372Z,10.73
2022-12-04T08:35:35.453Z,11.43
2022-12-04T08:40:43.370Z,10.43
2022-12-04T08:45:58.174Z,9.73
2022-12-04T08:51:04.334Z,10.30
2022-12-04T08:56:12.970Z,10.85
2022-12-04T09:01:18.751Z,12.27
2022-12-04T09:06:24.900Z,11.33
2022-12-04T09:11:33.281Z,10.48
2022-12-04T09:16:38.619Z,10.40
2022-12-04T09:21:43.951Z,9.18
2022-12-04T09:26:51.796Z,8.90
2022-12-04T09:31:57.089Z,10.40
2022-12-04T09:37:02.372Z,11.82
2022-12-04T09:42:31.049Z,9.50
2022-12-04T09:47:39.637Z,11.85
2022-12-04T09:52:53.314Z,10.45
2022-12-04T09:58:03.149Z,10.03
2022-12-04T10:03:10.777Z,10.65
2022-12-04T10:08:21.977Z,11.73
2022-12-04T10:13:47.353Z,9.65
2022-12-04T10:19:00.753Z,11.30
2022-12-04T10:24:19.846Z,11.37
2022-12-04T10:29:33.612Z,11.63
2022-12-04T10:34:44.080Z,12.47
2022-12-04T10:39:56.431Z,9.35
2022-12-04T10:45:04.784Z,11.05
2022-12-04T10:50:18.858Z,12.30
2022-12-04T10:55:32.283Z,12.85
2022-12-04T11:00:40.330Z,11.77
2022-12-04T11:05:55.450Z,9.80
2022-12-04T11:11:03.938Z,14.10
2022-12-04T11:16:34.948Z,13.57
2022-12-04T11:21:41.590Z,11.70
2022-12-04T11:26:49.436Z,14.03
2022-12-04T11:32:04.090Z,12.52
2022-12-04T11:37:22.659Z,13.77
2022-12-04T11:42:30.768Z,12.13
2022-12-04T11:47:38.754Z,13.02
2022-12-04T11:53:05.325Z,12.53
2022-12-04T11:58:29.004Z,9.85
2022-12-04T12:03:43.718Z,12.10
2022-12-04T12:09:03.172Z,15.43
2022-12-04T12:14:17.104Z,13.15
2022-12-04T12:19:51.527Z,13.50
2022-12-04T12:25:05.962Z,15.35
2022-12-04T12:30:17.315Z,12.82
2022-12-04T12:35:30.190Z,11.13
2022-12-04T12:40:40.096Z,10.77
2022-12-04T12:45:52.245Z,12.33
2022-12-04T12:51:28.550Z,12.15
2022-12-04T12:56:35.703Z,11.23
2022-12-04T13:01:48.671Z,13.03
2022-12-04T13:07:23.441Z,12.50
2022-12-04T13:12:30.001Z,12.40
2022-12-04T13:17:38.818Z,11.07
2022-12-04T13:22:54.940Z,12.93
2022-12-04T13:28:16.121Z,13.33
2022-12-04T13:33:49.004Z,13.82
2022-12-04T13:39:21.976Z,13.80
2022-12-04T13:44:28.799Z,12.80
2022-12-04T13:49:35.789Z,12.00
2022-12-04T13:54:43.698Z,11.87
2022-12-04T13:59:49.876Z,11.57
2022-12-04T14:05:01.750Z,11.83
2022-12-04T14:10:25.830Z,10.60
2022-12-04T14:15:32.600Z,13.02
2022-12-04T14:20:38.409Z,16.27
2022-12-04T14:25:46.795Z,13.50
2022-12-04T14:31:06.119Z,17.87
2022-12-04T14:36:19.551Z,13.77
2022-12-04T14:41:30.874Z,16.13
2022-12-04T14:46:44.522Z,18.20
2022-12-04T14:51:57.665Z,17.40
2022-12-04T14:57:31.500Z,20.77
2022-12-04T15:02:41.999Z,16.92
2022-12-04T15:07:51.616Z,19.17
2022-12-04T15:12:59.612Z,18.30
2022-12-04T15:18:07.234Z,24.38
2022-12-04T15:23:17.876Z,16.80
2022-12-04T15:28:29.228Z,18.23
2022-12-04T15:33:39.209Z,18.63
2022-12-04T15:38:44.855Z,19.07
2022-12-04T15:43:55.951Z,19.95
2022-12-04T15:49:08.961Z,16.53
2022-12-04T15:54:18.980Z,16.77
2022-12-04T15:59:29.951Z,18.90
2022-12-04T16:04:41.071Z,16.90
2022-12-04T16:09:59.554Z,17.48
2022-12-04T16:15:12.013Z,15.50
2022-12-04T16:20:17.586Z,17.02
2022-12-04T16:25:23.120Z,14.48
2022-12-04T16:30:34.905Z,15.63
2022-12-04T16:35:40.461Z,18.10
2022-12-04T16:40:46.439Z,16.50
2022-12-04T16:45:56.252Z,18.58
2022-12-04T16:51:02.547Z,16.10
2022-12-04T16:56:08.606Z,19.20
2022-12-04T17:01:23.339Z,16.27
2022-12-04T17:06:28.689Z,15.67
2022-12-04T17:11:34.351Z,13.82
2022-12-04T17:16:45.102Z,16.02
2022-12-04T17:21:50.462Z,20.23
2022-12-04T17:26:55.813Z,17.52
2022-12-04T17:32:03.828Z,16.33
2022-12-04T17:37:09.296Z,17.23
2022-12-04T17:42:16.679Z,20.63
2022-12-04T17:47:24.636Z,16.90
2022-12-04T17:52:31.431Z,19.75
2022-12-04T17:57:37.085Z,19.40
2022-12-04T18:02:48.810Z,18.88
2022-12-04T18:07:58.646Z,17.63
2022-12-04T18:13:07.132Z,15.70
2022-12-04T18:18:15.088Z,16.33
2022-12-04T18:23:21.737Z,16.13
2022-12-04T18:28:27.271Z,17.40
2022-12-04T18:33:35.802Z,17.90
2022-12-04T18:38:41.416Z,15.17
2022-12-04T18:43:47.640Z,17.17
2022-12-04T18:48:59.274Z,18.47
2022-12-04T18:54:06.597Z,16.05
2022-12-04T18:59:15.187Z,18.23
2022-12-04T19:04:24.721Z,17.80
2022-12-04T19:10:02.526Z,15.85
2022-12-04T19:14:56.955Z,16.10
2022-12-04T19:20:04.842Z,19.90
2022-12-04T19:28:11.701Z,21.17
2022-12-04T19:33:17.020Z,19.30
2022-12-04T19:38:22.741Z,24.17
2022-12-04T19:43:31.278Z,30.20
2022-12-04T19:48:37.953Z,26.02
2022-12-04T19:53:43.777Z,24.85
2022-12-04T19:58:51.580Z,27.50
2022-12-04T20:03:57.781Z,30.33
2022-12-04T20:09:06.142Z,23.70
2022-12-04T20:14:14.582Z,26.65
2022-12-04T20:19:21.236Z,24.30
2022-12-04T20:24:26.667Z,25.73
2022-12-04T20:29:34.568Z,29.83
2022-12-04T20:34:43.699Z,25.27
2022-12-04T20:39:49.423Z,27.08
2022-12-04T20:44:57.889Z,29.17
2022-12-04T20:50:03.201Z,26.52
2022-12-04T20:55:09.696Z,29.15
2022-12-04T21:00:21.561Z,26.30
2022-12-04T21:05:27.169Z,30.48
2022-12-04T21:10:33.033Z,29.17
2022-12-04T21:16:02.539Z,31.48
2022-12-04T21:21:07.985Z,28.98
2022-12-04T21:26:14.421Z,28.03
2022-12-04T21:31:22.348Z,25.45
2022-12-04T21:36:28.889Z,28.10
2022-12-04T21:41:46.827Z,30.23
2022-12-04T21:46:54.876Z,28.20
2022-12-04T21:52:00.211Z,26.53
2022-12-04T21:57:05.813Z,27.17
2022-12-04T22:02:14.021Z,24.27
2022-12-04T22:07:19.647Z,27.70
2022-12-04T22:12:48.469Z,24.73
2022-12-04T22:17:54.946Z,26.17
2022-12-04T22:23:00.584Z,25.73
2022-12-04T22:28:05.837Z,26.55
2022-12-04T22:33:13.688Z,28.30
2022-12-04T22:38:18.962Z,25.45
2022-12-04T22:43:24.314Z,24.10
2022-12-04T22:48:34.691Z,27.02
2022-12-04T22:53:42.585Z,27.70
2022-12-04T22:58:47.931Z,26.95
2022-12-04T23:03:56.396Z,25.23
2022-12-04T23:09:03.545Z,23.93
2022-12-04T23:14:11.285Z,25.92
2022-12-04T23:19:21.496Z,26.15
2022-12-04T23:24:26.993Z,26.10
2022-12-04T23:35:00.166Z,29.50
2022-12-04T23:40:06.167Z,27.08
2022-12-04T23:45:12.226Z,26.33
2022-12-04T23:50:20.283Z,28.97
2022-12-04T23:55:29.748Z,25.27
